Ana Sayfa
METAR-TAF:

METAR-TAF

Havaalanları :

Sanford-Lee County Regional Airport

Sanford, Kuzey Carolina, Amerika Birleşik Devletleri

Enlem: 35-34-57N, Boylam: 079-06-05W, yükseklik: 75 m

Güncel hava durumu gözlemi

Rapor saat 02:15 UTC de 22 dakika önce yapıldı.
Rüzgar kuzeydan 9 kt ve 16 kt'a kadar ani rüzgarlar
Sıcaklık 3°C
Nem 44%
Basınç 1021 hPa
Görüş mesafesi: 16.1 km
Açık gökyüzü

METAR: KTTA 200215Z AUTO 35009G16KT 10SM CLR 03/M08 A3014 RMK AO2 T00301085

Saat: 21:37 (02:37 UTC)


TAF: eksik

4.000'den fazla havaalanı için hava durumu gözlemleri ve tahminleri (METAR ve TAF raporları).

Kullanılabilir istasyonlar harita üzerinde sarı ve kırmızı noktalarla gösterilir.

İstasyonun adını görmek için fareyi noktanın üzerinde gezdirin.

Sonrasında hava gözlem ve tahminlerini görmek için tıklayın.

Haritayı değiştirmek için: yaklaştırmak için siyah artı işaretli yeşil düğmeye ve uzaklaştırmak için de eksi işaretli düğmeye hızla tıklayın; bitişik haritalar için yeşil okları kullanın.


METAR-TAF: